Terminal Aerodrome Forecast
Issued by NWS

Home | Current Version | Previous Version | Graphics & Text | Print | Product List | Glossary On
Versions: 1 2 3 4 5 6 7 8 9 10 11 12 13 14 15
000
FTUS43 KGRB 210500
TAFAUW
TAF
KAUW 210525Z 2106/2206 19005KT P6SM SCT060 WS010/22030KT
     FM210900 17005KT P6SM SCT035 BKN060 WS010/22030KT
      TEMPO 2109/2113 BKN035
     FM211400 20010G18KT P6SM SCT040 SCT090
     FM212300 18006KT P6SM SCT045=

USA.gov is the U.S. government's official web portal to all federal, state and local government web resources and services.